sensor_id;sensor_type;location;lat;lon;timestamp;P1;durP1;ratioP1;P2;durP2;ratioP2
19903;SDS011;10114;50.970;4.962;2023-05-16T00:02:01;19.75;;;3.20;;
19903;SDS011;10114;50.970;4.962;2023-05-16T00:04:27;16.85;;;2.45;;
19903;SDS011;10114;50.970;4.962;2023-05-16T00:06:53;17.33;;;3.00;;
19903;SDS011;10114;50.970;4.962;2023-05-16T00:09:20;13.80;;;3.75;;
19903;SDS011;10114;50.970;4.962;2023-05-16T00:11:46;18.95;;;3.00;;
19903;SDS011;10114;50.970;4.962;2023-05-16T00:14:12;21.33;;;3.45;;
19903;SDS011;10114;50.970;4.962;2023-05-16T00:16:39;17.00;;;3.10;;
19903;SDS011;10114;50.970;4.962;2023-05-16T00:19:05;14.35;;;2.67;;
19903;SDS011;10114;50.970;4.962;2023-05-16T00:21:32;13.55;;;2.40;;
19903;SDS011;10114;50.970;4.962;2023-05-16T00:23:58;16.48;;;3.53;;
19903;SDS011;10114;50.970;4.962;2023-05-16T00:26:24;13.38;;;2.60;;
19903;SDS011;10114;50.970;4.962;2023-05-16T00:28:51;13.20;;;2.78;;
19903;SDS011;10114;50.970;4.962;2023-05-16T00:31:17;12.45;;;3.08;;
19903;SDS011;10114;50.970;4.962;2023-05-16T00:33:43;9.38;;;3.33;;
19903;SDS011;10114;50.970;4.962;2023-05-16T00:36:09;15.18;;;2.65;;
19903;SDS011;10114;50.970;4.962;2023-05-16T00:38:35;18.63;;;3.42;;
19903;SDS011;10114;50.970;4.962;2023-05-16T00:41:01;17.02;;;3.15;;
19903;SDS011;10114;50.970;4.962;2023-05-16T00:43:28;20.33;;;4.07;;
19903;SDS011;10114;50.970;4.962;2023-05-16T00:45:55;13.13;;;2.80;;
19903;SDS011;10114;50.970;4.962;2023-05-16T00:48:21;19.20;;;3.80;;
19903;SDS011;10114;50.970;4.962;2023-05-16T00:50:48;15.32;;;3.40;;
19903;SDS011;10114;50.970;4.962;2023-05-16T00:53:14;15.48;;;3.05;;
19903;SDS011;10114;50.970;4.962;2023-05-16T00:55:40;13.35;;;2.80;;
19903;SDS011;10114;50.970;4.962;2023-05-16T00:58:08;27.35;;;3.80;;
19903;SDS011;10114;50.970;4.962;2023-05-16T01:00:36;14.48;;;3.33;;
19903;SDS011;10114;50.970;4.962;2023-05-16T01:03:03;15.23;;;3.50;;
19903;SDS011;10114;50.970;4.962;2023-05-16T01:05:29;16.80;;;3.47;;
19903;SDS011;10114;50.970;4.962;2023-05-16T01:07:55;18.52;;;3.15;;
19903;SDS011;10114;50.970;4.962;2023-05-16T01:10:21;16.45;;;3.53;;
19903;SDS011;10114;50.970;4.962;2023-05-16T01:15:43;22.85;;;3.60;;
19903;SDS011;10114;50.970;4.962;2023-05-16T01:18:15;18.00;;;3.22;;
19903;SDS011;10114;50.970;4.962;2023-05-16T01:20:49;20.27;;;3.53;;
19903;SDS011;10114;50.970;4.962;2023-05-16T01:23:25;19.67;;;3.28;;
19903;SDS011;10114;50.970;4.962;2023-05-16T01:28:18;16.63;;;3.50;;
19903;SDS011;10114;50.970;4.962;2023-05-16T01:30:44;21.88;;;3.60;;
19903;SDS011;10114;50.970;4.962;2023-05-16T01:33:10;20.65;;;3.85;;
19903;SDS011;10114;50.970;4.962;2023-05-16T01:35:39;16.50;;;4.25;;
19903;SDS011;10114;50.970;4.962;2023-05-16T01:38:09;22.42;;;4.32;;
19903;SDS011;10114;50.970;4.962;2023-05-16T01:40:54;17.67;;;4.75;;
19903;SDS011;10114;50.970;4.962;2023-05-16T01:43:33;17.55;;;4.88;;
19903;SDS011;10114;50.970;4.962;2023-05-16T01:46:06;26.85;;;4.50;;
19903;SDS011;10114;50.970;4.962;2023-05-16T01:48:35;17.92;;;4.80;;
19903;SDS011;10114;50.970;4.962;2023-05-16T01:51:04;14.00;;;3.55;;
19903;SDS011;10114;50.970;4.962;2023-05-16T01:53:37;19.92;;;4.82;;
19903;SDS011;10114;50.970;4.962;2023-05-16T01:56:03;22.30;;;4.60;;
19903;SDS011;10114;50.970;4.962;2023-05-16T01:58:33;16.33;;;3.70;;
19903;SDS011;10114;50.970;4.962;2023-05-16T02:01:03;26.95;;;4.35;;
19903;SDS011;10114;50.970;4.962;2023-05-16T02:03:29;17.73;;;3.85;;
19903;SDS011;10114;50.970;4.962;2023-05-16T02:05:56;22.02;;;4.93;;
19903;SDS011;10114;50.970;4.962;2023-05-16T02:08:23;14.18;;;3.25;;
19903;SDS011;10114;50.970;4.962;2023-05-16T02:10:50;13.20;;;3.45;;
19903;SDS011;10114;50.970;4.962;2023-05-16T02:13:16;13.48;;;3.47;;
19903;SDS011;10114;50.970;4.962;2023-05-16T02:15:42;19.83;;;4.00;;
19903;SDS011;10114;50.970;4.962;2023-05-16T02:18:08;22.30;;;4.13;;
19903;SDS011;10114;50.970;4.962;2023-05-16T02:20:35;16.58;;;3.83;;
19903;SDS011;10114;50.970;4.962;2023-05-16T02:23:01;23.63;;;3.53;;
19903;SDS011;10114;50.970;4.962;2023-05-16T02:25:27;21.52;;;3.35;;
19903;SDS011;10114;50.970;4.962;2023-05-16T02:27:53;18.40;;;3.97;;
19903;SDS011;10114;50.970;4.962;2023-05-16T02:30:20;22.88;;;4.72;;
19903;SDS011;10114;50.970;4.962;2023-05-16T02:32:46;20.17;;;3.53;;
19903;SDS011;10114;50.970;4.962;2023-05-16T02:35:13;16.65;;;3.30;;
19903;SDS011;10114;50.970;4.962;2023-05-16T02:37:40;18.83;;;3.63;;
19903;SDS011;10114;50.970;4.962;2023-05-16T02:40:06;16.63;;;3.67;;
19903;SDS011;10114;50.970;4.962;2023-05-16T02:42:33;17.23;;;3.95;;
19903;SDS011;10114;50.970;4.962;2023-05-16T02:45:00;16.48;;;4.65;;
19903;SDS011;10114;50.970;4.962;2023-05-16T02:47:26;20.65;;;4.47;;
19903;SDS011;10114;50.970;4.962;2023-05-16T02:49:52;17.40;;;3.53;;
19903;SDS011;10114;50.970;4.962;2023-05-16T02:52:18;17.00;;;4.28;;
19903;SDS011;10114;50.970;4.962;2023-05-16T02:54:44;14.90;;;3.30;;
19903;SDS011;10114;50.970;4.962;2023-05-16T02:57:10;18.85;;;3.70;;
19903;SDS011;10114;50.970;4.962;2023-05-16T02:59:36;19.00;;;4.53;;
19903;SDS011;10114;50.970;4.962;2023-05-16T03:02:02;15.55;;;4.38;;
19903;SDS011;10114;50.970;4.962;2023-05-16T03:04:28;21.02;;;4.72;;
19903;SDS011;10114;50.970;4.962;2023-05-16T03:06:54;21.33;;;5.03;;
19903;SDS011;10114;50.970;4.962;2023-05-16T03:09:20;13.10;;;4.43;;
19903;SDS011;10114;50.970;4.962;2023-05-16T03:11:47;16.70;;;3.85;;
19903;SDS011;10114;50.970;4.962;2023-05-16T03:14:13;23.75;;;4.60;;
19903;SDS011;10114;50.970;4.962;2023-05-16T03:16:39;16.67;;;3.85;;
19903;SDS011;10114;50.970;4.962;2023-05-16T03:19:07;21.10;;;3.65;;
19903;SDS011;10114;50.970;4.962;2023-05-16T03:21:33;14.55;;;3.08;;
19903;SDS011;10114;50.970;4.962;2023-05-16T03:24:01;18.30;;;4.32;;
19903;SDS011;10114;50.970;4.962;2023-05-16T03:26:28;15.50;;;4.00;;
19903;SDS011;10114;50.970;4.962;2023-05-16T03:28:54;17.45;;;3.42;;
19903;SDS011;10114;50.970;4.962;2023-05-16T03:31:20;16.00;;;3.88;;
19903;SDS011;10114;50.970;4.962;2023-05-16T03:33:46;16.98;;;3.53;;
19903;SDS011;10114;50.970;4.962;2023-05-16T03:36:12;21.83;;;3.40;;
19903;SDS011;10114;50.970;4.962;2023-05-16T03:38:38;18.10;;;3.78;;
19903;SDS011;10114;50.970;4.962;2023-05-16T03:41:04;18.52;;;4.00;;
19903;SDS011;10114;50.970;4.962;2023-05-16T03:43:30;22.85;;;4.15;;
19903;SDS011;10114;50.970;4.962;2023-05-16T03:45:56;13.77;;;3.72;;
19903;SDS011;10114;50.970;4.962;2023-05-16T03:48:22;24.98;;;5.50;;
19903;SDS011;10114;50.970;4.962;2023-05-16T03:50:48;21.48;;;5.22;;
19903;SDS011;10114;50.970;4.962;2023-05-16T03:53:15;19.42;;;3.97;;
19903;SDS011;10114;50.970;4.962;2023-05-16T03:55:41;15.60;;;3.60;;
19903;SDS011;10114;50.970;4.962;2023-05-16T03:58:07;9.45;;;3.63;;
19903;SDS011;10114;50.970;4.962;2023-05-16T04:00:34;15.52;;;3.72;;
19903;SDS011;10114;50.970;4.962;2023-05-16T04:03:00;18.55;;;3.97;;
19903;SDS011;10114;50.970;4.962;2023-05-16T04:05:26;23.25;;;4.10;;
19903;SDS011;10114;50.970;4.962;2023-05-16T04:07:53;13.40;;;3.65;;
19903;SDS011;10114;50.970;4.962;2023-05-16T04:10:19;20.90;;;4.30;;
19903;SDS011;10114;50.970;4.962;2023-05-16T04:12:45;23.42;;;4.70;;
19903;SDS011;10114;50.970;4.962;2023-05-16T04:15:11;17.05;;;3.70;;
19903;SDS011;10114;50.970;4.962;2023-05-16T04:17:37;11.00;;;3.58;;
19903;SDS011;10114;50.970;4.962;2023-05-16T04:20:04;16.30;;;4.68;;
19903;SDS011;10114;50.970;4.962;2023-05-16T04:22:31;17.85;;;3.63;;
19903;SDS011;10114;50.970;4.962;2023-05-16T04:24:57;22.00;;;4.28;;
19903;SDS011;10114;50.970;4.962;2023-05-16T04:27:23;16.40;;;4.13;;
19903;SDS011;10114;50.970;4.962;2023-05-16T04:29:50;15.98;;;3.30;;
19903;SDS011;10114;50.970;4.962;2023-05-16T04:32:16;12.85;;;3.10;;
19903;SDS011;10114;50.970;4.962;2023-05-16T04:34:43;12.27;;;3.13;;
19903;SDS011;10114;50.970;4.962;2023-05-16T04:37:12;13.20;;;3.03;;
19903;SDS011;10114;50.970;4.962;2023-05-16T04:39:38;13.88;;;3.78;;
19903;SDS011;10114;50.970;4.962;2023-05-16T04:42:04;16.83;;;3.13;;
19903;SDS011;10114;50.970;4.962;2023-05-16T04:44:31;14.55;;;3.10;;
19903;SDS011;10114;50.970;4.962;2023-05-16T04:46:57;14.32;;;3.22;;
19903;SDS011;10114;50.970;4.962;2023-05-16T04:49:23;14.60;;;3.70;;
19903;SDS011;10114;50.970;4.962;2023-05-16T04:51:49;19.25;;;3.47;;
19903;SDS011;10114;50.970;4.962;2023-05-16T04:54:15;14.68;;;3.33;;
19903;SDS011;10114;50.970;4.962;2023-05-16T04:56:41;21.27;;;2.83;;
19903;SDS011;10114;50.970;4.962;2023-05-16T04:59:07;14.05;;;3.00;;
19903;SDS011;10114;50.970;4.962;2023-05-16T05:01:33;18.25;;;3.75;;
19903;SDS011;10114;50.970;4.962;2023-05-16T05:03:59;14.65;;;3.78;;
19903;SDS011;10114;50.970;4.962;2023-05-16T05:06:25;23.10;;;3.88;;
19903;SDS011;10114;50.970;4.962;2023-05-16T05:08:52;12.93;;;3.30;;
19903;SDS011;10114;50.970;4.962;2023-05-16T05:11:18;13.75;;;3.50;;
19903;SDS011;10114;50.970;4.962;2023-05-16T05:13:45;15.27;;;3.53;;
19903;SDS011;10114;50.970;4.962;2023-05-16T05:16:11;17.00;;;4.32;;
19903;SDS011;10114;50.970;4.962;2023-05-16T05:18:37;16.02;;;4.28;;
19903;SDS011;10114;50.970;4.962;2023-05-16T05:21:03;13.60;;;3.97;;
19903;SDS011;10114;50.970;4.962;2023-05-16T05:23:29;20.80;;;3.47;;
19903;SDS011;10114;50.970;4.962;2023-05-16T05:25:55;16.52;;;3.65;;
19903;SDS011;10114;50.970;4.962;2023-05-16T05:28:21;12.10;;;3.50;;
19903;SDS011;10114;50.970;4.962;2023-05-16T05:30:47;18.13;;;4.32;;
19903;SDS011;10114;50.970;4.962;2023-05-16T05:33:15;21.63;;;3.60;;
19903;SDS011;10114;50.970;4.962;2023-05-16T05:35:42;16.95;;;3.05;;
19903;SDS011;10114;50.970;4.962;2023-05-16T05:38:08;15.38;;;3.65;;
19903;SDS011;10114;50.970;4.962;2023-05-16T05:40:34;11.65;;;3.47;;
19903;SDS011;10114;50.970;4.962;2023-05-16T05:43:01;11.88;;;3.53;;
19903;SDS011;10114;50.970;4.962;2023-05-16T05:45:27;24.73;;;4.07;;
19903;SDS011;10114;50.970;4.962;2023-05-16T05:47:53;18.63;;;3.63;;
19903;SDS011;10114;50.970;4.962;2023-05-16T05:50:19;17.42;;;3.72;;
19903;SDS011;10114;50.970;4.962;2023-05-16T05:52:45;16.73;;;3.55;;
19903;SDS011;10114;50.970;4.962;2023-05-16T05:55:11;21.25;;;3.47;;
19903;SDS011;10114;50.970;4.962;2023-05-16T05:57:37;12.48;;;3.38;;
19903;SDS011;10114;50.970;4.962;2023-05-16T06:00:04;15.55;;;3.35;;
19903;SDS011;10114;50.970;4.962;2023-05-16T06:02:31;14.40;;;3.67;;
19903;SDS011;10114;50.970;4.962;2023-05-16T06:04:57;11.48;;;2.60;;
19903;SDS011;10114;50.970;4.962;2023-05-16T06:07:23;12.50;;;2.47;;
19903;SDS011;10114;50.970;4.962;2023-05-16T06:09:49;11.45;;;2.63;;
19903;SDS011;10114;50.970;4.962;2023-05-16T06:12:16;14.40;;;3.10;;
19903;SDS011;10114;50.970;4.962;2023-05-16T06:14:42;16.67;;;3.10;;
19903;SDS011;10114;50.970;4.962;2023-05-16T06:17:08;20.88;;;3.35;;
19903;SDS011;10114;50.970;4.962;2023-05-16T06:19:34;15.90;;;3.00;;
19903;SDS011;10114;50.970;4.962;2023-05-16T06:22:00;19.77;;;2.90;;
19903;SDS011;10114;50.970;4.962;2023-05-16T06:24:26;10.30;;;2.38;;
19903;SDS011;10114;50.970;4.962;2023-05-16T06:26:53;13.18;;;2.25;;
19903;SDS011;10114;50.970;4.962;2023-05-16T06:29:20;9.80;;;2.47;;
19903;SDS011;10114;50.970;4.962;2023-05-16T06:31:46;15.18;;;2.30;;
19903;SDS011;10114;50.970;4.962;2023-05-16T06:34:12;14.68;;;2.42;;
19903;SDS011;10114;50.970;4.962;2023-05-16T06:36:38;12.23;;;2.33;;
19903;SDS011;10114;50.970;4.962;2023-05-16T06:39:04;10.75;;;2.22;;
19903;SDS011;10114;50.970;4.962;2023-05-16T06:41:30;23.40;;;2.67;;
19903;SDS011;10114;50.970;4.962;2023-05-16T06:43:56;11.10;;;2.10;;
19903;SDS011;10114;50.970;4.962;2023-05-16T06:46:22;9.10;;;1.95;;
19903;SDS011;10114;50.970;4.962;2023-05-16T06:48:48;14.00;;;2.30;;
19903;SDS011;10114;50.970;4.962;2023-05-16T06:51:14;16.92;;;2.85;;
19903;SDS011;10114;50.970;4.962;2023-05-16T06:53:40;10.60;;;2.30;;
19903;SDS011;10114;50.970;4.962;2023-05-16T06:56:06;12.68;;;2.50;;
19903;SDS011;10114;50.970;4.962;2023-05-16T06:58:32;9.82;;;1.80;;
19903;SDS011;10114;50.970;4.962;2023-05-16T07:00:58;12.85;;;2.95;;
19903;SDS011;10114;50.970;4.962;2023-05-16T07:03:24;8.75;;;1.20;;
19903;SDS011;10114;50.970;4.962;2023-05-16T07:05:50;10.43;;;1.30;;
19903;SDS011;10114;50.970;4.962;2023-05-16T07:08:17;12.60;;;1.77;;
19903;SDS011;10114;50.970;4.962;2023-05-16T07:10:43;14.95;;;1.63;;
19903;SDS011;10114;50.970;4.962;2023-05-16T07:13:09;9.88;;;1.40;;
19903;SDS011;10114;50.970;4.962;2023-05-16T07:15:35;9.18;;;1.55;;
19903;SDS011;10114;50.970;4.962;2023-05-16T07:18:01;11.98;;;1.95;;
19903;SDS011;10114;50.970;4.962;2023-05-16T07:20:27;11.38;;;1.67;;
19903;SDS011;10114;50.970;4.962;2023-05-16T07:22:53;11.55;;;1.67;;
19903;SDS011;10114;50.970;4.962;2023-05-16T07:25:21;10.13;;;2.03;;
19903;SDS011;10114;50.970;4.962;2023-05-16T07:27:47;12.20;;;1.92;;
19903;SDS011;10114;50.970;4.962;2023-05-16T07:30:13;9.48;;;1.75;;
19903;SDS011;10114;50.970;4.962;2023-05-16T07:32:40;8.70;;;1.40;;
19903;SDS011;10114;50.970;4.962;2023-05-16T07:35:07;21.73;;;2.08;;
19903;SDS011;10114;50.970;4.962;2023-05-16T07:37:33;7.63;;;1.20;;
19903;SDS011;10114;50.970;4.962;2023-05-16T07:40:00;13.43;;;1.65;;
19903;SDS011;10114;50.970;4.962;2023-05-16T07:42:26;8.32;;;1.85;;
19903;SDS011;10114;50.970;4.962;2023-05-16T07:44:52;9.40;;;1.85;;
19903;SDS011;10114;50.970;4.962;2023-05-16T07:47:19;9.80;;;2.05;;
19903;SDS011;10114;50.970;4.962;2023-05-16T07:49:45;8.10;;;2.17;;
19903;SDS011;10114;50.970;4.962;2023-05-16T07:52:11;12.75;;;1.35;;
19903;SDS011;10114;50.970;4.962;2023-05-16T07:54:37;8.15;;;1.10;;
19903;SDS011;10114;50.970;4.962;2023-05-16T07:57:03;4.15;;;0.70;;
19903;SDS011;10114;50.970;4.962;2023-05-16T07:59:29;6.22;;;1.45;;
19903;SDS011;10114;50.970;4.962;2023-05-16T08:01:55;5.32;;;1.10;;
19903;SDS011;10114;50.970;4.962;2023-05-16T08:04:21;7.25;;;1.30;;
19903;SDS011;10114;50.970;4.962;2023-05-16T08:06:48;8.95;;;1.17;;
19903;SDS011;10114;50.970;4.962;2023-05-16T08:09:14;7.93;;;1.00;;
19903;SDS011;10114;50.970;4.962;2023-05-16T08:11:40;8.98;;;1.42;;
19903;SDS011;10114;50.970;4.962;2023-05-16T08:14:09;6.28;;;1.10;;
19903;SDS011;10114;50.970;4.962;2023-05-16T08:16:35;5.90;;;1.27;;
19903;SDS011;10114;50.970;4.962;2023-05-16T08:19:01;10.00;;;1.08;;
19903;SDS011;10114;50.970;4.962;2023-05-16T08:21:27;14.88;;;1.98;;
19903;SDS011;10114;50.970;4.962;2023-05-16T08:23:54;8.35;;;1.42;;
19903;SDS011;10114;50.970;4.962;2023-05-16T08:26:20;10.90;;;1.33;;
19903;SDS011;10114;50.970;4.962;2023-05-16T08:28:46;4.03;;;1.20;;
19903;SDS011;10114;50.970;4.962;2023-05-16T08:31:13;4.82;;;1.33;;
19903;SDS011;10114;50.970;4.962;2023-05-16T08:33:39;10.98;;;1.50;;
19903;SDS011;10114;50.970;4.962;2023-05-16T08:36:05;11.07;;;1.60;;
19903;SDS011;10114;50.970;4.962;2023-05-16T08:38:31;7.00;;;1.25;;
19903;SDS011;10114;50.970;4.962;2023-05-16T08:40:57;10.20;;;2.22;;
19903;SDS011;10114;50.970;4.962;2023-05-16T08:43:23;13.25;;;2.35;;
19903;SDS011;10114;50.970;4.962;2023-05-16T08:45:49;15.07;;;1.58;;
19903;SDS011;10114;50.970;4.962;2023-05-16T08:48:15;10.45;;;1.70;;
19903;SDS011;10114;50.970;4.962;2023-05-16T08:50:42;5.97;;;1.20;;
19903;SDS011;10114;50.970;4.962;2023-05-16T08:53:08;10.73;;;1.23;;
19903;SDS011;10114;50.970;4.962;2023-05-16T08:55:34;6.65;;;1.15;;
19903;SDS011;10114;50.970;4.962;2023-05-16T08:58:01;6.07;;;1.40;;
19903;SDS011;10114;50.970;4.962;2023-05-16T09:00:27;9.82;;;1.48;;
19903;SDS011;10114;50.970;4.962;2023-05-16T09:02:53;7.57;;;1.13;;
19903;SDS011;10114;50.970;4.962;2023-05-16T09:05:20;9.25;;;1.25;;
19903;SDS011;10114;50.970;4.962;2023-05-16T09:07:47;5.07;;;0.88;;
19903;SDS011;10114;50.970;4.962;2023-05-16T09:10:14;12.25;;;1.65;;
19903;SDS011;10114;50.970;4.962;2023-05-16T09:12:40;9.35;;;1.42;;
19903;SDS011;10114;50.970;4.962;2023-05-16T09:15:08;18.33;;;1.75;;
19903;SDS011;10114;50.970;4.962;2023-05-16T09:20:09;9.30;;;1.45;;
19903;SDS011;10114;50.970;4.962;2023-05-16T09:22:36;7.72;;;1.20;;
19903;SDS011;10114;50.970;4.962;2023-05-16T09:25:02;5.75;;;1.38;;
19903;SDS011;10114;50.970;4.962;2023-05-16T09:27:29;4.45;;;0.98;;
19903;SDS011;10114;50.970;4.962;2023-05-16T09:29:56;5.80;;;1.00;;
19903;SDS011;10114;50.970;4.962;2023-05-16T09:32:22;5.93;;;1.20;;
19903;SDS011;10114;50.970;4.962;2023-05-16T09:34:49;4.70;;;0.90;;
19903;SDS011;10114;50.970;4.962;2023-05-16T09:37:16;11.40;;;1.02;;
19903;SDS011;10114;50.970;4.962;2023-05-16T09:39:49;4.57;;;0.98;;
19903;SDS011;10114;50.970;4.962;2023-05-16T09:42:16;8.18;;;1.27;;
19903;SDS011;10114;50.970;4.962;2023-05-16T09:44:46;11.10;;;1.05;;
19903;SDS011;10114;50.970;4.962;2023-05-16T09:47:17;7.07;;;1.25;;
19903;SDS011;10114;50.970;4.962;2023-05-16T09:49:44;7.53;;;1.13;;
19903;SDS011;10114;50.970;4.962;2023-05-16T09:52:10;6.43;;;1.17;;
19903;SDS011;10114;50.970;4.962;2023-05-16T09:54:36;7.03;;;1.10;;
19903;SDS011;10114;50.970;4.962;2023-05-16T09:57:02;6.95;;;1.00;;
19903;SDS011;10114;50.970;4.962;2023-05-16T09:59:38;10.38;;;1.40;;
19903;SDS011;10114;50.970;4.962;2023-05-16T10:02:05;6.13;;;1.10;;
19903;SDS011;10114;50.970;4.962;2023-05-16T10:04:34;6.55;;;1.02;;
19903;SDS011;10114;50.970;4.962;2023-05-16T10:07:01;3.88;;;0.85;;
19903;SDS011;10114;50.970;4.962;2023-05-16T10:09:29;4.18;;;0.90;;
19903;SDS011;10114;50.970;4.962;2023-05-16T10:11:57;6.65;;;1.13;;
19903;SDS011;10114;50.970;4.962;2023-05-16T10:14:27;5.13;;;1.08;;
19903;SDS011;10114;50.970;4.962;2023-05-16T10:16:53;8.27;;;1.10;;
19903;SDS011;10114;50.970;4.962;2023-05-16T10:19:19;3.40;;;0.80;;
19903;SDS011;10114;50.970;4.962;2023-05-16T10:21:47;7.35;;;1.02;;
19903;SDS011;10114;50.970;4.962;2023-05-16T10:24:17;5.72;;;1.05;;
19903;SDS011;10114;50.970;4.962;2023-05-16T10:26:44;7.63;;;1.35;;
19903;SDS011;10114;50.970;4.962;2023-05-16T10:29:10;7.32;;;1.20;;
19903;SDS011;10114;50.970;4.962;2023-05-16T10:31:37;4.10;;;0.90;;
19903;SDS011;10114;50.970;4.962;2023-05-16T10:34:03;3.88;;;0.73;;
19903;SDS011;10114;50.970;4.962;2023-05-16T10:36:29;5.35;;;0.88;;
19903;SDS011;10114;50.970;4.962;2023-05-16T10:38:55;9.25;;;1.10;;
19903;SDS011;10114;50.970;4.962;2023-05-16T10:41:22;1.77;;;0.50;;
19903;SDS011;10114;50.970;4.962;2023-05-16T10:43:55;5.18;;;0.93;;
19903;SDS011;10114;50.970;4.962;2023-05-16T10:46:22;3.80;;;0.98;;
19903;SDS011;10114;50.970;4.962;2023-05-16T10:48:49;5.22;;;0.90;;
19903;SDS011;10114;50.970;4.962;2023-05-16T10:53:47;4.70;;;0.57;;
19903;SDS011;10114;50.970;4.962;2023-05-16T10:56:15;3.72;;;0.70;;
19903;SDS011;10114;50.970;4.962;2023-05-16T10:58:47;7.93;;;1.02;;
19903;SDS011;10114;50.970;4.962;2023-05-16T11:03:58;8.93;;;1.02;;
19903;SDS011;10114;50.970;4.962;2023-05-16T11:06:26;7.07;;;0.98;;
19903;SDS011;10114;50.970;4.962;2023-05-16T11:09:05;5.38;;;1.10;;
19903;SDS011;10114;50.970;4.962;2023-05-16T11:14:07;6.93;;;0.80;;
19903;SDS011;10114;50.970;4.962;2023-05-16T11:16:34;3.50;;;0.80;;
19903;SDS011;10114;50.970;4.962;2023-05-16T11:19:04;5.43;;;1.00;;
19903;SDS011;10114;50.970;4.962;2023-05-16T11:24:31;4.85;;;0.98;;
19903;SDS011;10114;50.970;4.962;2023-05-16T11:27:00;2.90;;;0.75;;
19903;SDS011;10114;50.970;4.962;2023-05-16T11:29:35;5.38;;;1.13;;
19903;SDS011;10114;50.970;4.962;2023-05-16T11:32:03;7.45;;;0.68;;
19903;SDS011;10114;50.970;4.962;2023-05-16T11:34:30;4.97;;;0.80;;
19903;SDS011;10114;50.970;4.962;2023-05-16T11:36:56;5.80;;;0.90;;
19903;SDS011;10114;50.970;4.962;2023-05-16T11:39:24;8.98;;;0.80;;
19903;SDS011;10114;50.970;4.962;2023-05-16T11:41:50;11.23;;;0.88;;
19903;SDS011;10114;50.970;4.962;2023-05-16T11:44:16;5.90;;;1.17;;
19903;SDS011;10114;50.970;4.962;2023-05-16T11:46:42;6.50;;;1.27;;
19903;SDS011;10114;50.970;4.962;2023-05-16T11:49:08;5.32;;;1.00;;
19903;SDS011;10114;50.970;4.962;2023-05-16T11:51:41;3.58;;;1.02;;
19903;SDS011;10114;50.970;4.962;2023-05-16T11:54:10;9.27;;;1.15;;
19903;SDS011;10114;50.970;4.962;2023-05-16T11:56:39;2.33;;;0.80;;
19903;SDS011;10114;50.970;4.962;2023-05-16T11:59:06;6.47;;;0.90;;
19903;SDS011;10114;50.970;4.962;2023-05-16T12:01:38;4.75;;;1.25;;
19903;SDS011;10114;50.970;4.962;2023-05-16T12:04:08;3.50;;;0.73;;
19903;SDS011;10114;50.970;4.962;2023-05-16T12:06:34;6.35;;;1.08;;
19903;SDS011;10114;50.970;4.962;2023-05-16T12:09:01;6.60;;;0.90;;
19903;SDS011;10114;50.970;4.962;2023-05-16T12:11:34;4.95;;;0.90;;
19903;SDS011;10114;50.970;4.962;2023-05-16T12:14:00;6.53;;;1.23;;
19903;SDS011;10114;50.970;4.962;2023-05-16T12:16:26;4.10;;;1.00;;
19903;SDS011;10114;50.970;4.962;2023-05-16T12:18:52;1.88;;;0.77;;
19903;SDS011;10114;50.970;4.962;2023-05-16T12:21:18;5.32;;;0.88;;
19903;SDS011;10114;50.970;4.962;2023-05-16T12:23:44;5.10;;;1.08;;
19903;SDS011;10114;50.970;4.962;2023-05-16T12:26:10;5.03;;;0.80;;
19903;SDS011;10114;50.970;4.962;2023-05-16T12:28:36;5.40;;;0.93;;
19903;SDS011;10114;50.970;4.962;2023-05-16T12:31:03;4.38;;;0.70;;
19903;SDS011;10114;50.970;4.962;2023-05-16T12:33:36;5.63;;;0.90;;
19903;SDS011;10114;50.970;4.962;2023-05-16T12:36:02;4.40;;;0.98;;
19903;SDS011;10114;50.970;4.962;2023-05-16T12:38:28;5.15;;;1.25;;
19903;SDS011;10114;50.970;4.962;2023-05-16T12:40:58;7.18;;;1.17;;
19903;SDS011;10114;50.970;4.962;2023-05-16T12:43:24;4.70;;;1.20;;
19903;SDS011;10114;50.970;4.962;2023-05-16T12:45:52;6.03;;;1.15;;
19903;SDS011;10114;50.970;4.962;2023-05-16T12:48:19;3.55;;;0.75;;
19903;SDS011;10114;50.970;4.962;2023-05-16T12:50:45;5.45;;;1.10;;
19903;SDS011;10114;50.970;4.962;2023-05-16T12:53:13;6.38;;;1.15;;
19903;SDS011;10114;50.970;4.962;2023-05-16T12:55:39;5.07;;;0.95;;
19903;SDS011;10114;50.970;4.962;2023-05-16T12:58:06;5.63;;;1.30;;
19903;SDS011;10114;50.970;4.962;2023-05-16T13:00:32;6.80;;;0.90;;
19903;SDS011;10114;50.970;4.962;2023-05-16T13:02:58;4.00;;;1.00;;
19903;SDS011;10114;50.970;4.962;2023-05-16T13:05:24;5.22;;;1.17;;
19903;SDS011;10114;50.970;4.962;2023-05-16T13:07:50;6.95;;;1.00;;
19903;SDS011;10114;50.970;4.962;2023-05-16T13:10:17;4.43;;;0.90;;
19903;SDS011;10114;50.970;4.962;2023-05-16T13:12:43;4.10;;;0.90;;
19903;SDS011;10114;50.970;4.962;2023-05-16T13:15:10;4.65;;;1.08;;
19903;SDS011;10114;50.970;4.962;2023-05-16T13:17:37;5.88;;;1.10;;
19903;SDS011;10114;50.970;4.962;2023-05-16T13:20:03;5.80;;;1.05;;
19903;SDS011;10114;50.970;4.962;2023-05-16T13:22:36;4.25;;;0.90;;
19903;SDS011;10114;50.970;4.962;2023-05-16T13:25:02;4.15;;;0.90;;
19903;SDS011;10114;50.970;4.962;2023-05-16T13:27:29;8.05;;;1.35;;
19903;SDS011;10114;50.970;4.962;2023-05-16T13:29:55;6.68;;;1.02;;
19903;SDS011;10114;50.970;4.962;2023-05-16T13:32:22;4.35;;;0.95;;
19903;SDS011;10114;50.970;4.962;2023-05-16T13:34:48;3.45;;;1.00;;
19903;SDS011;10114;50.970;4.962;2023-05-16T13:37:15;6.15;;;0.70;;
19903;SDS011;10114;50.970;4.962;2023-05-16T13:39:41;3.17;;;1.08;;
19903;SDS011;10114;50.970;4.962;2023-05-16T13:42:07;8.82;;;1.45;;
19903;SDS011;10114;50.970;4.962;2023-05-16T13:44:33;8.45;;;1.00;;
19903;SDS011;10114;50.970;4.962;2023-05-16T13:46:59;4.57;;;1.10;;
19903;SDS011;10114;50.970;4.962;2023-05-16T13:49:25;3.13;;;0.80;;
19903;SDS011;10114;50.970;4.962;2023-05-16T13:51:51;7.85;;;1.63;;
19903;SDS011;10114;50.970;4.962;2023-05-16T13:54:18;4.30;;;1.20;;
19903;SDS011;10114;50.970;4.962;2023-05-16T13:56:45;4.80;;;1.15;;
19903;SDS011;10114;50.970;4.962;2023-05-16T13:59:12;8.05;;;1.02;;
19903;SDS011;10114;50.970;4.962;2023-05-16T14:01:38;9.20;;;1.35;;
19903;SDS011;10114;50.970;4.962;2023-05-16T14:04:04;7.18;;;1.23;;
19903;SDS011;10114;50.970;4.962;2023-05-16T14:06:30;8.45;;;1.67;;
19903;SDS011;10114;50.970;4.962;2023-05-16T14:08:57;7.93;;;1.20;;
19903;SDS011;10114;50.970;4.962;2023-05-16T14:11:23;8.13;;;1.08;;
19903;SDS011;10114;50.970;4.962;2023-05-16T14:13:52;7.03;;;1.30;;
19903;SDS011;10114;50.970;4.962;2023-05-16T14:16:18;5.00;;;1.15;;
19903;SDS011;10114;50.970;4.962;2023-05-16T14:18:44;5.97;;;1.45;;
19903;SDS011;10114;50.970;4.962;2023-05-16T14:21:10;6.72;;;1.40;;
19903;SDS011;10114;50.970;4.962;2023-05-16T14:23:37;6.45;;;1.00;;
19903;SDS011;10114;50.970;4.962;2023-05-16T14:26:03;8.23;;;1.20;;
19903;SDS011;10114;50.970;4.962;2023-05-16T14:28:29;6.57;;;1.13;;
19903;SDS011;10114;50.970;4.962;2023-05-16T14:30:58;4.82;;;0.90;;
19903;SDS011;10114;50.970;4.962;2023-05-16T14:33:25;7.07;;;1.45;;
19903;SDS011;10114;50.970;4.962;2023-05-16T14:35:51;6.53;;;1.30;;
19903;SDS011;10114;50.970;4.962;2023-05-16T14:38:17;4.68;;;1.23;;
19903;SDS011;10114;50.970;4.962;2023-05-16T14:40:43;6.85;;;0.90;;
19903;SDS011;10114;50.970;4.962;2023-05-16T14:43:09;3.88;;;1.00;;
19903;SDS011;10114;50.970;4.962;2023-05-16T14:45:36;5.95;;;1.02;;
19903;SDS011;10114;50.970;4.962;2023-05-16T14:48:03;4.25;;;0.90;;
19903;SDS011;10114;50.970;4.962;2023-05-16T14:50:29;7.97;;;1.70;;
19903;SDS011;10114;50.970;4.962;2023-05-16T14:52:55;5.55;;;0.95;;
19903;SDS011;10114;50.970;4.962;2023-05-16T14:55:21;7.03;;;1.50;;
19903;SDS011;10114;50.970;4.962;2023-05-16T14:57:47;6.60;;;0.82;;